createdAt,value
2022-08-21T09:58:03.883Z,3.57
2022-08-21T10:00:38.557Z,3.60
2022-08-21T10:03:17.188Z,3.60
2022-08-21T10:06:21.938Z,4.18
2022-08-21T10:08:51.008Z,3.47
2022-08-21T10:11:25.457Z,3.60
2022-08-21T10:14:09.079Z,3.85
2022-08-21T10:17:17.846Z,3.90
2022-08-21T10:20:15.834Z,3.45
2022-08-21T10:23:29.818Z,3.55
2022-08-21T10:26:16.482Z,3.50
2022-08-21T10:29:22.689Z,3.50
2022-08-21T10:32:26.015Z,3.60
2022-08-21T10:35:35.192Z,3.15
2022-08-21T10:38:23.485Z,3.35
2022-08-21T10:41:11.898Z,3.00
2022-08-21T10:44:02.281Z,3.10
2022-08-21T10:47:21.827Z,2.85
2022-08-21T10:50:19.297Z,3.17
2022-08-21T10:52:53.212Z,3.17
2022-08-21T10:55:42.369Z,3.10
2022-08-21T10:58:28.197Z,2.72
2022-08-21T11:01:18.177Z,2.90
2022-08-21T11:03:53.786Z,3.10
2022-08-21T11:06:32.382Z,2.88
2022-08-21T11:09:14.887Z,3.10
2022-08-21T11:12:11.446Z,2.45
2022-08-21T11:15:29.721Z,3.10
2022-08-21T11:18:35.036Z,2.70
2022-08-21T11:21:35.190Z,2.60
2022-08-21T11:24:40.263Z,2.63
2022-08-21T11:27:45.497Z,2.50
2022-08-21T11:30:15.317Z,2.58
2022-08-21T11:33:16.011Z,2.80
2022-08-21T11:36:05.352Z,2.55
2022-08-21T11:38:43.638Z,2.47
2022-08-21T11:41:31.579Z,2.97
2022-08-21T11:44:10.447Z,2.08
2022-08-21T11:47:08.268Z,2.50
2022-08-21T11:50:18.118Z,2.50
2022-08-21T11:53:12.749Z,3.58
2022-08-21T11:56:03.489Z,2.28
2022-08-21T11:58:33.832Z,2.40
2022-08-21T12:01:34.341Z,2.42
2022-08-21T12:04:32.060Z,2.42
2022-08-21T12:07:15.848Z,2.25
2022-08-21T12:09:58.323Z,2.53
2022-08-21T12:12:37.687Z,2.13
2022-08-21T12:15:21.116Z,2.17
2022-08-21T12:18:31.747Z,2.70
2022-08-21T12:21:05.359Z,2.72
2022-08-21T12:24:16.646Z,2.25
2022-08-21T12:27:14.933Z,2.22
2022-08-21T12:29:53.838Z,2.70
2022-08-21T12:32:44.309Z,2.45
2022-08-21T12:35:23.261Z,2.65
2022-08-21T12:38:46.502Z,2.70
2022-08-21T12:41:23.676Z,2.78
2022-08-21T12:44:08.410Z,2.80
2022-08-21T12:46:46.895Z,2.60
2022-08-21T12:49:25.777Z,2.40
2022-08-21T12:52:10.759Z,2.43
2022-08-21T12:54:44.355Z,2.50
2022-08-21T12:57:28.725Z,2.40
2022-08-21T13:00:08.181Z,2.30
2022-08-21T13:02:51.062Z,2.50
2022-08-21T13:05:41.177Z,2.45
2022-08-21T13:08:14.029Z,2.53
2022-08-21T13:10:44.261Z,2.20
2022-08-21T13:13:28.319Z,2.38
2022-08-21T13:16:07.463Z,2.35
2022-08-21T13:19:00.048Z,2.40
2022-08-21T13:21:41.731Z,2.63
2022-08-21T13:24:43.988Z,2.55
2022-08-21T13:27:29.444Z,2.50
2022-08-21T13:30:11.846Z,2.60
2022-08-21T13:32:48.252Z,2.45
2022-08-21T13:35:21.512Z,2.90
2022-08-21T13:37:53.269Z,2.38
2022-08-21T13:40:40.236Z,2.60
2022-08-21T13:43:23.423Z,2.67
2022-08-21T13:45:55.535Z,2.72
2022-08-21T13:48:29.101Z,2.70
2022-08-21T13:50:59.073Z,2.97
2022-08-21T13:53:42.112Z,2.63
2022-08-21T13:56:10.286Z,3.20
2022-08-21T13:58:48.106Z,2.60
2022-08-21T14:01:49.670Z,2.65
2022-08-21T14:04:27.872Z,2.97
2022-08-21T14:06:56.969Z,2.70
2022-08-21T14:09:44.095Z,2.67
2022-08-21T14:12:50.301Z,2.60
2022-08-21T14:15:25.622Z,2.90
2022-08-21T14:17:53.838Z,2.70
2022-08-21T14:20:36.190Z,2.47
2022-08-21T14:23:05.134Z,2.55
2022-08-21T14:25:45.050Z,2.50
2022-08-21T14:28:29.544Z,2.50
2022-08-21T14:30:58.912Z,2.30
2022-08-21T14:33:33.716Z,2.40
2022-08-21T14:36:03.451Z,2.75
2022-08-21T14:38:31.924Z,2.60
2022-08-21T14:41:30.480Z,3.67
2022-08-21T14:44:07.489Z,2.90
2022-08-21T14:46:45.855Z,2.50
2022-08-21T14:49:27.726Z,2.75
2022-08-21T14:51:59.011Z,2.40
2022-08-21T14:54:32.920Z,2.47
2022-08-21T14:57:12.021Z,2.50
2022-08-21T14:59:41.000Z,2.30
2022-08-21T15:02:10.914Z,2.60
2022-08-21T15:04:39.073Z,2.83
2022-08-21T15:07:07.234Z,2.60
2022-08-21T15:09:35.426Z,2.67
2022-08-21T15:12:05.300Z,2.60
2022-08-21T15:14:37.603Z,2.50
2022-08-21T15:17:08.405Z,2.47
2022-08-21T15:19:37.105Z,2.70
2022-08-21T15:22:06.318Z,2.80
2022-08-21T15:24:44.160Z,2.60
2022-08-21T15:27:13.541Z,2.88
2022-08-21T15:29:45.198Z,2.58
2022-08-21T15:32:30.090Z,2.40
2022-08-21T15:34:59.021Z,2.47
2022-08-21T15:37:27.446Z,2.45
2022-08-21T15:39:55.775Z,2.35
2022-08-21T15:42:26.144Z,2.45
2022-08-21T15:44:57.160Z,2.47
2022-08-21T15:47:38.733Z,2.55
2022-08-21T15:50:10.694Z,2.50
2022-08-21T15:52:39.163Z,2.63
2022-08-21T15:55:09.505Z,3.42
2022-08-21T15:57:39.290Z,2.20
2022-08-21T16:00:17.270Z,2.28
2022-08-21T16:02:52.016Z,2.30
2022-08-21T16:05:23.092Z,2.60
2022-08-21T16:07:52.305Z,2.47
2022-08-21T16:10:27.516Z,2.70
2022-08-21T16:13:04.486Z,2.80
2022-08-21T16:15:33.283Z,2.40
2022-08-21T16:18:01.501Z,2.70
2022-08-21T16:20:31.218Z,2.50
2022-08-21T16:23:00.335Z,2.58
2022-08-21T16:25:29.286Z,2.65
2022-08-21T16:28:02.093Z,2.88
2022-08-21T16:30:31.521Z,2.92
2022-08-21T16:33:03.680Z,2.67
2022-08-21T16:35:32.112Z,2.90
2022-08-21T16:38:00.855Z,2.60
2022-08-21T16:40:30.148Z,2.70
2022-08-21T16:42:58.513Z,2.60
2022-08-21T16:45:31.183Z,2.97
2022-08-21T16:48:04.750Z,3.00
2022-08-21T16:50:33.094Z,3.53
2022-08-21T16:53:01.214Z,3.13
2022-08-21T16:55:29.830Z,3.00
2022-08-21T16:57:58.253Z,2.72
2022-08-21T17:00:27.174Z,2.72
2022-08-21T17:02:58.068Z,3.00
2022-08-21T17:05:28.167Z,3.10
2022-08-21T17:07:56.738Z,3.17
2022-08-21T17:10:25.126Z,3.00
2022-08-21T17:12:58.878Z,2.95
2022-08-21T17:15:37.245Z,2.75
2022-08-21T17:18:08.722Z,2.90
2022-08-21T17:23:11.496Z,3.35
2022-08-21T17:25:43.815Z,2.63
2022-08-21T17:28:26.182Z,2.90
2022-08-21T17:30:58.905Z,3.20
2022-08-21T17:33:29.625Z,3.05
2022-08-21T17:35:58.056Z,3.00
2022-08-21T17:38:27.890Z,3.25
2022-08-21T17:40:56.475Z,2.95
2022-08-21T17:43:25.541Z,2.83
2022-08-21T17:45:54.142Z,3.20
2022-08-21T17:48:25.459Z,3.08
2022-08-21T17:50:53.706Z,3.10
2022-08-21T17:53:22.430Z,3.05
2022-08-21T17:55:51.694Z,3.40
2022-08-21T17:58:19.794Z,3.35
2022-08-21T18:00:50.222Z,3.38
2022-08-21T18:03:26.856Z,3.40
2022-08-21T18:05:57.070Z,3.42
2022-08-21T18:08:25.786Z,3.13
2022-08-21T18:10:54.318Z,3.33
2022-08-21T18:13:37.231Z,3.67
2022-08-21T18:16:07.706Z,3.33
2022-08-21T18:18:43.406Z,3.27
2022-08-21T18:21:11.847Z,3.67
2022-08-21T18:23:44.465Z,3.63
2022-08-21T18:26:28.365Z,3.42
2022-08-21T18:29:00.693Z,3.45
2022-08-21T18:31:36.205Z,3.70
2022-08-21T18:34:20.175Z,3.90
2022-08-21T18:36:52.925Z,3.78
2022-08-21T18:39:38.244Z,3.97
2022-08-21T18:42:12.830Z,3.65
2022-08-21T18:44:44.304Z,3.80
2022-08-21T18:49:58.142Z,4.13
2022-08-21T18:55:17.586Z,4.25
2022-08-21T18:57:59.307Z,4.03
2022-08-21T19:00:33.697Z,4.50
2022-08-21T19:03:02.545Z,4.05
2022-08-21T19:05:35.311Z,4.30
2022-08-21T19:08:05.008Z,3.92
2022-08-21T19:10:34.059Z,4.35
2022-08-21T19:13:04.741Z,3.90
2022-08-21T19:15:39.089Z,4.32
2022-08-21T19:18:15.255Z,4.50
2022-08-21T19:20:47.365Z,4.47
2022-08-21T19:23:17.473Z,4.15
2022-08-21T19:25:51.699Z,4.43
2022-08-21T19:28:33.870Z,4.50
2022-08-21T19:31:19.762Z,4.88
2022-08-21T19:34:12.181Z,4.18
2022-08-21T19:36:42.244Z,4.55
2022-08-21T19:39:12.759Z,4.38
2022-08-21T19:41:51.189Z,3.83
2022-08-21T19:44:23.764Z,4.57
2022-08-21T19:46:55.124Z,5.10
2022-08-21T19:49:33.910Z,5.30
2022-08-21T19:52:13.137Z,5.03
2022-08-21T19:54:42.589Z,4.53
2022-08-21T19:57:12.385Z,4.68
2022-08-21T19:59:42.281Z,5.28
2022-08-21T20:02:14.622Z,4.97
2022-08-21T20:04:53.601Z,4.90
2022-08-21T20:07:26.729Z,4.55
2022-08-21T20:09:56.479Z,4.90
2022-08-21T20:12:25.366Z,5.25
2022-08-21T20:14:54.186Z,5.07
2022-08-21T20:17:25.302Z,4.85
2022-08-21T20:22:42.452Z,5.38
2022-08-21T20:25:10.867Z,5.22
2022-08-21T20:27:40.499Z,5.30
2022-08-21T20:30:10.814Z,5.00
2022-08-21T20:32:39.171Z,5.00
2022-08-21T20:37:59.698Z,5.00
2022-08-21T20:40:32.739Z,4.93
2022-08-21T20:43:02.851Z,5.20
2022-08-21T20:45:34.062Z,5.10
2022-08-21T20:48:25.974Z,5.25
2022-08-21T20:51:16.197Z,5.57
2022-08-21T20:53:59.256Z,4.78
2022-08-21T20:56:58.353Z,4.80
2022-08-21T20:59:51.865Z,4.70
2022-08-21T21:02:55.925Z,5.18
2022-08-21T21:05:28.490Z,5.05
2022-08-21T21:08:23.992Z,5.55
2022-08-21T21:11:18.618Z,5.30
2022-08-21T21:13:55.828Z,5.15
2022-08-21T21:16:32.369Z,5.25
2022-08-21T21:19:10.962Z,5.18
2022-08-21T21:21:57.046Z,5.20
2022-08-21T21:24:58.049Z,5.25
2022-08-21T21:27:35.439Z,5.50
2022-08-21T21:30:27.986Z,5.40
2022-08-21T21:32:56.524Z,5.40
2022-08-21T21:35:59.502Z,5.25
2022-08-21T21:39:11.511Z,5.25
2022-08-21T21:42:18.396Z,4.95
2022-08-21T21:45:25.195Z,5.20
2022-08-21T21:48:28.223Z,4.93
2022-08-21T21:51:03.584Z,5.43
2022-08-21T21:54:11.397Z,5.55
2022-08-21T21:57:12.157Z,5.15
2022-08-21T21:59:57.391Z,5.28
2022-08-21T22:02:42.670Z,6.07
2022-08-21T22:05:49.553Z,5.47
2022-08-21T22:08:29.952Z,4.65
2022-08-21T22:11:29.264Z,6.33
2022-08-21T22:14:10.376Z,4.80
2022-08-21T22:16:39.529Z,5.60
2022-08-21T22:19:20.257Z,5.68
2022-08-21T22:22:12.846Z,5.72
2022-08-21T22:24:48.491Z,4.88
2022-08-21T22:27:23.536Z,5.55
2022-08-21T22:30:00.221Z,5.13
2022-08-21T22:32:45.902Z,5.72
2022-08-21T22:35:21.514Z,5.07
2022-08-21T22:38:00.197Z,5.15
2022-08-21T22:40:34.994Z,5.70
2022-08-21T22:43:09.471Z,6.07
2022-08-21T22:46:01.897Z,5.55
2022-08-21T22:48:36.344Z,6.22
2022-08-21T22:51:23.210Z,6.20
2022-08-21T22:56:43.293Z,6.00
2022-08-21T22:59:29.391Z,6.18
2022-08-21T23:02:02.607Z,5.35
2022-08-21T23:04:33.789Z,5.28
2022-08-21T23:07:05.963Z,5.38
2022-08-21T23:09:45.911Z,5.93
2022-08-21T23:12:37.446Z,5.35
2022-08-21T23:15:17.982Z,5.80
2022-08-21T23:18:33.404Z,5.63
2022-08-21T23:21:26.653Z,6.00
2022-08-21T23:24:34.555Z,5.72
2022-08-21T23:27:44.631Z,5.63
2022-08-21T23:30:22.147Z,5.95
2022-08-21T23:33:17.452Z,5.82
2022-08-21T23:36:43.589Z,5.57
2022-08-21T23:39:34.459Z,6.28
2022-08-21T23:42:38.748Z,6.15
2022-08-21T23:45:54.651Z,5.22
2022-08-21T23:48:32.578Z,5.78
2022-08-21T23:51:03.038Z,5.55
2022-08-21T23:54:07.350Z,6.28
2022-08-21T23:57:01.697Z,5.85
2022-08-21T23:59:35.388Z,5.25
